Time;durP1;ratioP1;P1;durP2;ratioP2;P2;SDS_P1;SDS_P2;PMS_P1;PMS_P2;Temp;Humidity;BMP_temperature;BMP_pressure;BME280_temperature;BME280_humidity;BME280_pressure;Samples;Min_cycle;Max_cycle;Signal;HPM_P1;HPM_P2
2021/04/30 00:02:02;;;;;;;13.50;12.63;;;9.60;99.90;;;;;;5015006;28;20453;-68
2021/04/30 00:04:28;;;;;;;13.30;12.60;;;9.60;99.90;;;;;;5014713;28;20455;-69
2021/04/30 00:06:54;;;;;;;13.90;13.10;;;9.60;99.90;;;;;;5014762;28;20450;-69
2021/04/30 00:09:20;;;;;;;13.87;13.17;;;9.60;99.90;;;;;;5015062;28;20459;-69
2021/04/30 00:11:49;;;;;;;13.00;12.40;;;9.50;99.90;;;;;;5015038;28;20844;-69
2021/04/30 00:14:16;;;;;;;13.00;12.10;;;9.40;99.90;;;;;;5014564;28;20546;-68
2021/04/30 00:16:42;;;;;;;14.13;13.33;;;9.50;99.90;;;;;;5014889;28;20804;-69
2021/04/30 00:19:08;;;;;;;14.07;13.27;;;9.40;99.90;;;;;;5014610;28;20457;-70
2021/04/30 00:21:36;;;;;;;14.60;13.80;;;9.40;99.90;;;;;;5014691;28;21026;-69
2021/04/30 00:24:02;;;;;;;13.60;12.90;;;9.40;99.90;;;;;;5014851;28;20456;-68
2021/04/30 00:26:29;;;;;;;13.13;12.27;;;9.40;99.90;;;;;;5014609;28;20490;-68
2021/04/30 00:28:57;;;;;;;13.73;12.93;;;9.40;99.90;;;;;;5014102;28;20485;-69
2021/04/30 00:31:23;;;;;;;13.07;12.37;;;9.40;99.90;;;;;;5014517;28;20493;-68
2021/04/30 00:33:50;;;;;;;13.70;12.90;;;9.50;99.90;;;;;;5014134;28;20522;-68
2021/04/30 00:36:16;;;;;;;13.90;13.17;;;9.50;99.90;;;;;;5014349;28;20450;-68
2021/04/30 00:38:42;;;;;;;13.40;12.70;;;9.50;99.90;;;;;;5014500;28;20809;-68
2021/04/30 00:41:08;;;;;;;15.53;14.53;;;9.60;99.90;;;;;;5014410;28;20450;-68
2021/04/30 00:43:35;;;;;;;16.03;15.00;;;9.60;99.90;;;;;;5014192;28;20454;-69
2021/04/30 00:46:02;;;;;;;14.43;13.63;;;9.60;99.90;;;;;;5014536;28;20445;-68
2021/04/30 00:48:28;;;;;;;14.20;13.30;;;9.70;99.90;;;;;;5013993;28;20824;-69
2021/04/30 00:50:54;;;;;;;16.03;14.90;;;9.80;99.90;;;;;;5014181;28;20846;-70
2021/04/30 00:53:21;;;;;;;15.63;14.63;;;9.80;99.90;;;;;;5014148;28;20453;-69
2021/04/30 00:55:47;;;;;;;15.40;14.40;;;9.80;99.90;;;;;;5013977;28;20454;-69
2021/04/30 00:58:14;;;;;;;17.20;16.10;;;9.90;99.90;;;;;;5014021;28;20457;-70
2021/04/30 01:00:40;;;;;;;17.37;16.27;;;9.90;99.90;;;;;;5012894;28;20508;-69
2021/04/30 01:03:09;;;;;;;16.00;15.00;;;9.80;99.90;;;;;;5013690;28;20550;-69
2021/04/30 01:05:35;;;;;;;16.23;15.13;;;9.80;99.90;;;;;;5013921;28;20449;-69
2021/04/30 01:08:02;;;;;;;17.50;16.40;;;9.80;99.90;;;;;;5013673;28;20976;-70
2021/04/30 01:10:29;;;;;;;17.60;16.50;;;9.80;99.90;;;;;;5013406;28;20461;-70
2021/04/30 01:12:55;;;;;;;17.00;15.90;;;9.80;99.90;;;;;;5013664;28;20856;-69
2021/04/30 01:15:22;;;;;;;15.33;14.43;;;9.60;99.90;;;;;;5013690;28;20462;-69
2021/04/30 01:17:48;;;;;;;16.30;15.20;;;9.50;99.90;;;;;;5013542;28;21246;-69
2021/04/30 01:20:18;;;;;;;16.03;15.03;;;9.50;99.90;;;;;;5013382;28;20457;-69
2021/04/30 01:22:46;;;;;;;15.10;14.30;;;9.50;99.90;;;;;;5013539;28;20453;-69
2021/04/30 01:25:14;;;;;;;16.00;14.90;;;9.50;99.90;;;;;;5013344;28;21151;-69
2021/04/30 01:27:41;;;;;;;16.53;15.63;;;9.40;99.90;;;;;;5013375;28;20454;-69
2021/04/30 01:30:09;;;;;;;16.47;15.47;;;9.50;99.90;;;;;;5013202;28;20457;-68
2021/04/30 01:32:36;;;;;;;14.93;14.13;;;9.50;99.90;;;;;;5012965;28;20613;-68
2021/04/30 01:35:03;;;;;;;14.80;14.00;;;9.50;99.90;;;;;;5013141;28;20486;-69
2021/04/30 01:37:29;;;;;;;15.00;14.13;;;9.50;99.90;;;;;;5013297;28;20450;-69
2021/04/30 01:39:56;;;;;;;15.40;14.50;;;9.50;99.90;;;;;;5013119;28;20903;-69
2021/04/30 01:42:23;;;;;;;15.77;14.70;;;9.60;99.90;;;;;;5013067;28;20459;-68
2021/04/30 01:44:50;;;;;;;14.60;13.80;;;9.60;99.90;;;;;;5012963;28;20833;-69
2021/04/30 01:47:16;;;;;;;14.60;13.70;;;9.50;99.90;;;;;;5013024;28;20821;-69
2021/04/30 01:49:42;;;;;;;15.00;14.00;;;9.50;99.90;;;;;;5013021;28;20458;-68
2021/04/30 01:52:08;;;;;;;15.00;14.00;;;9.50;99.90;;;;;;5012759;28;20486;-69
2021/04/30 01:54:34;;;;;;;16.87;15.67;;;9.40;99.90;;;;;;5013069;28;20455;-69
2021/04/30 01:57:02;;;;;;;15.80;14.90;;;9.40;99.90;;;;;;5012927;28;20469;-69
2021/04/30 01:59:28;;;;;;;15.57;14.67;;;9.50;99.90;;;;;;5012725;28;20469;-68
2021/04/30 02:01:54;;;;;;;16.13;15.13;;;9.50;99.90;;;;;;5012690;28;20457;-69
2021/04/30 02:04:20;;;;;;;15.60;14.53;;;9.50;99.90;;;;;;5012801;28;20457;-69
2021/04/30 02:06:47;;;;;;;15.57;14.70;;;9.50;99.90;;;;;;5012821;28;20446;-70
2021/04/30 02:09:13;;;;;;;15.80;14.80;;;9.50;99.90;;;;;;5012578;28;20450;-69
2021/04/30 02:11:40;;;;;;;16.30;15.00;;;9.50;99.90;;;;;;5012264;28;20494;-69
2021/04/30 02:14:07;;;;;;;16.10;15.10;;;9.60;99.90;;;;;;5012534;28;20464;-67
2021/04/30 02:16:34;;;;;;;16.10;15.10;;;9.50;99.90;;;;;;5012711;28;20876;-67
2021/04/30 02:19:00;;;;;;;17.37;16.30;;;9.50;99.90;;;;;;5012521;28;20485;-68
2021/04/30 02:21:27;;;;;;;17.00;15.97;;;9.50;99.90;;;;;;5012198;28;20444;-68
2021/04/30 02:23:54;;;;;;;16.27;15.30;;;9.50;99.90;;;;;;5012307;28;20457;-67
2021/04/30 02:26:22;;;;;;;15.30;14.40;;;9.50;99.90;;;;;;5012433;28;20457;-70
2021/04/30 02:28:48;;;;;;;17.00;15.87;;;9.50;99.90;;;;;;5012451;28;20450;-67
2021/04/30 02:31:16;;;;;;;17.20;16.20;;;9.50;99.90;;;;;;5012303;28;20544;-67
2021/04/30 02:33:42;;;;;;;17.83;16.30;;;9.60;99.90;;;;;;5011616;28;20472;-67
2021/04/30 02:36:08;;;;;;;16.77;15.83;;;9.60;99.90;;;;;;5012043;28;20822;-68
2021/04/30 02:38:35;;;;;;;18.87;17.67;;;9.40;99.90;;;;;;5012332;28;20822;-66
2021/04/30 02:41:02;;;;;;;19.90;18.60;;;9.30;99.90;;;;;;5012037;28;20453;-68
2021/04/30 02:43:28;;;;;;;18.97;17.80;;;9.00;99.90;;;;;;5011857;28;20449;-67
2021/04/30 02:45:56;;;;;;;18.83;17.63;;;8.90;99.90;;;;;;5012064;28;20510;-67
2021/04/30 02:48:29;;;;;;;18.63;17.33;;;8.80;99.90;;;;;;5011776;28;20512;-66
2021/04/30 02:50:56;;;;;;;18.83;17.60;;;8.60;99.90;;;;;;5012118;28;20516;-67
2021/04/30 02:53:24;;;;;;;20.53;19.10;;;8.50;99.90;;;;;;5011795;28;20453;-67
2021/04/30 02:55:50;;;;;;;19.87;18.57;;;8.50;99.90;;;;;;5012010;28;20457;-68
2021/04/30 02:58:16;;;;;;;18.80;17.60;;;8.40;99.90;;;;;;5011677;28;20891;-67
2021/04/30 03:00:43;;;;;;;20.87;19.27;;;8.30;99.90;;;;;;5011987;28;20500;-67
2021/04/30 03:03:09;;;;;;;20.07;18.77;;;8.20;99.90;;;;;;5011693;28;20868;-68
2021/04/30 03:05:36;;;;;;;20.93;19.40;;;8.10;99.90;;;;;;5011820;28;20454;-68
2021/04/30 03:08:03;;;;;;;20.53;19.13;;;8.00;99.90;;;;;;5011516;28;20454;-68
2021/04/30 03:10:29;;;;;;;20.90;19.50;;;7.80;99.90;;;;;;5011623;28;20449;-68
2021/04/30 03:12:55;;;;;;;20.20;18.90;;;7.70;99.90;;;;;;5011429;28;20919;-68
2021/04/30 03:15:22;;;;;;;21.47;19.97;;;7.80;99.90;;;;;;5011541;28;20458;-69
2021/04/30 03:17:49;;;;;;;21.30;19.80;;;7.80;99.90;;;;;;5011774;28;20449;-69
2021/04/30 03:20:17;;;;;;;20.57;18.87;;;7.90;99.90;;;;;;5011746;28;20851;-68
2021/04/30 03:22:44;;;;;;;21.40;19.70;;;8.10;99.90;;;;;;5010819;28;20961;-68
2021/04/30 03:25:11;;;;;;;20.87;19.43;;;8.10;99.90;;;;;;5011127;28;20948;-68
2021/04/30 03:27:38;;;;;;;20.73;19.33;;;8.10;99.90;;;;;;5011182;28;20457;-68
2021/04/30 03:30:06;;;;;;;20.90;19.40;;;8.20;99.90;;;;;;5011513;28;20454;-68
2021/04/30 03:32:32;;;;;;;20.67;19.17;;;8.20;99.90;;;;;;5011028;28;20512;-68
2021/04/30 03:34:58;;;;;;;20.70;19.10;;;8.30;99.90;;;;;;5011123;28;20481;-69
2021/04/30 03:37:25;;;;;;;20.77;19.37;;;8.30;99.90;;;;;;5011295;28;20943;-69
2021/04/30 03:39:52;;;;;;;21.00;19.67;;;8.40;99.90;;;;;;5011257;28;20481;-68
2021/04/30 03:42:18;;;;;;;20.50;18.97;;;8.50;99.90;;;;;;5011241;28;20453;-70
2021/04/30 03:44:44;;;;;;;19.87;18.57;;;8.60;99.90;;;;;;5011065;28;20469;-69
2021/04/30 03:47:11;;;;;;;21.00;19.40;;;8.60;99.90;;;;;;5011136;28;20504;-69
2021/04/30 03:49:37;;;;;;;20.73;18.60;;;8.60;99.90;;;;;;5011120;28;20459;-69
2021/04/30 03:52:04;;;;;;;21.20;19.40;;;8.60;99.90;;;;;;5011209;28;20486;-69
2021/04/30 03:54:31;;;;;;;20.90;19.30;;;8.60;99.90;;;;;;5011230;28;20821;-68
2021/04/30 03:56:58;;;;;;;20.70;19.20;;;8.60;99.90;;;;;;5010946;28;20653;-69
2021/04/30 03:59:24;;;;;;;20.37;18.93;;;8.60;99.90;;;;;;5010956;28;20454;-68
2021/04/30 04:01:51;;;;;;;21.40;19.87;;;8.60;99.90;;;;;;5010751;28;20962;-69
2021/04/30 04:04:17;;;;;;;21.30;19.70;;;8.70;99.90;;;;;;5010864;28;20955;-69
2021/04/30 04:06:43;;;;;;;19.80;18.27;;;8.70;99.90;;;;;;5010921;28;20454;-69
2021/04/30 04:09:10;;;;;;;18.87;17.20;;;8.70;99.90;;;;;;5010851;28;20458;-69
2021/04/30 04:11:36;;;;;;;20.47;18.97;;;8.70;99.90;;;;;;5010613;28;20909;-69
2021/04/30 04:14:03;;;;;;;20.50;19.00;;;8.70;99.90;;;;;;5010961;28;20438;-69
2021/04/30 04:16:30;;;;;;;19.00;17.70;;;8.70;99.90;;;;;;5010726;28;20476;-70
2021/04/30 04:18:56;;;;;;;22.00;20.50;;;8.60;99.90;;;;;;5010583;28;20461;-69
2021/04/30 04:21:22;;;;;;;20.80;19.30;;;8.70;99.90;;;;;;5010638;28;20473;-68
2021/04/30 04:23:48;;;;;;;19.90;18.40;;;8.70;99.90;;;;;;5010806;28;20480;-69
2021/04/30 04:26:14;;;;;;;20.40;18.63;;;8.70;99.90;;;;;;5010514;28;20438;-68
2021/04/30 04:28:40;;;;;;;19.70;18.30;;;8.70;99.90;;;;;;5010531;28;20450;-72
2021/04/30 04:31:08;;;;;;;20.87;19.20;;;8.70;99.90;;;;;;5010411;28;20478;-68
2021/04/30 04:33:34;;;;;;;20.50;18.90;;;8.80;99.90;;;;;;5010408;28;20535;-70
2021/04/30 04:36:00;;;;;;;20.60;19.10;;;8.80;99.90;;;;;;5013019;28;20559;-69
2021/04/30 04:38:27;;;;;;;20.30;18.80;;;8.90;99.90;;;;;;5013745;28;21057;-68
2021/04/30 04:40:53;;;;;;;19.40;18.00;;;8.90;99.90;;;;;;5014148;28;20454;-68
2021/04/30 04:43:19;;;;;;;19.60;18.20;;;9.00;99.90;;;;;;5013854;28;20450;-68
2021/04/30 04:45:46;;;;;;;20.80;19.33;;;9.00;99.90;;;;;;5013810;28;20458;-70
2021/04/30 04:48:13;;;;;;;20.80;19.20;;;8.90;99.90;;;;;;5013948;28;20450;-70
2021/04/30 04:50:39;;;;;;;21.30;19.70;;;9.00;99.90;;;;;;5013846;28;20472;-70
2021/04/30 04:53:05;;;;;;;19.43;17.70;;;9.10;99.90;;;;;;5013677;28;20453;-69
2021/04/30 04:55:31;;;;;;;19.53;18.23;;;9.00;99.90;;;;;;5013961;28;20446;-70
2021/04/30 04:57:58;;;;;;;21.53;19.83;;;9.10;99.90;;;;;;5013774;28;20486;-70
2021/04/30 05:00:24;;;;;;;21.37;19.77;;;9.10;99.90;;;;;;5013625;28;20461;-70
2021/04/30 05:02:50;;;;;;;20.40;18.90;;;9.20;99.90;;;;;;5013886;28;20449;-70
2021/04/30 05:05:17;;;;;;;20.67;19.03;;;9.30;99.90;;;;;;5013910;28;20542;-69
2021/04/30 05:07:43;;;;;;;21.37;19.50;;;9.40;99.90;;;;;;5013625;28;20449;-69
2021/04/30 05:10:11;;;;;;;19.93;18.43;;;9.30;99.90;;;;;;5013572;28;20454;-71
2021/04/30 05:12:37;;;;;;;19.37;17.63;;;9.30;99.90;;;;;;5013469;28;20904;-69
2021/04/30 05:15:04;;;;;;;19.67;18.03;;;9.40;99.90;;;;;;5013312;28;20472;-69
2021/04/30 05:17:30;;;;;;;20.77;19.27;;;9.30;99.90;;;;;;5013642;28;20461;-69
2021/04/30 05:19:56;;;;;;;19.53;18.13;;;9.30;99.90;;;;;;5013409;28;20454;-69
2021/04/30 05:22:24;;;;;;;19.23;17.80;;;9.60;99.90;;;;;;5013282;28;20452;-69
2021/04/30 05:24:50;;;;;;;18.87;17.57;;;9.40;99.90;;;;;;5013194;28;20508;-68
2021/04/30 05:27:16;;;;;;;19.20;17.77;;;9.20;99.90;;;;;;5013156;28;20860;-68
2021/04/30 05:29:43;;;;;;;19.57;18.03;;;9.30;99.90;;;;;;5013066;28;20461;-69
2021/04/30 05:32:10;;;;;;;18.97;17.50;;;9.30;99.90;;;;;;5013188;28;20482;-69
2021/04/30 05:34:38;;;;;;;20.17;18.47;;;9.40;99.90;;;;;;5012988;28;20489;-69
2021/04/30 05:37:04;;;;;;;20.73;18.97;;;9.40;99.90;;;;;;5013124;28;20449;-69
2021/04/30 05:39:31;;;;;;;21.07;19.37;;;9.60;99.90;;;;;;5013034;28;20450;-69
2021/04/30 05:41:58;;;;;;;19.17;17.77;;;9.70;99.90;;;;;;5012844;28;20453;-70
2021/04/30 05:44:24;;;;;;;20.77;18.97;;;9.70;99.90;;;;;;5012958;28;20799;-69
2021/04/30 05:46:50;;;;;;;19.43;18.07;;;9.80;99.90;;;;;;5012519;28;20454;-69
2021/04/30 05:49:16;;;;;;;19.53;17.70;;;9.90;99.90;;;;;;5012750;28;20450;-69
2021/04/30 05:51:42;;;;;;;19.90;18.47;;;10.00;99.90;;;;;;5012496;28;20493;-68
2021/04/30 05:54:09;;;;;;;22.30;20.60;;;9.90;99.90;;;;;;5012369;28;20504;-69
2021/04/30 05:56:36;;;;;;;19.10;17.90;;;9.90;99.90;;;;;;5012854;28;20454;-68
2021/04/30 05:59:03;;;;;;;19.07;17.77;;;10.20;99.90;;;;;;5012628;28;20462;-68
2021/04/30 06:01:30;;;;;;;18.03;16.87;;;10.10;99.30;;;;;;5012743;28;20454;-69
2021/04/30 06:03:56;;;;;;;17.60;16.50;;;9.90;99.90;;;;;;5012489;28;20449;-69
2021/04/30 06:06:22;;;;;;;19.83;18.30;;;9.80;99.90;;;;;;5012629;28;20453;-69
2021/04/30 06:08:48;;;;;;;18.93;17.40;;;10.00;99.90;;;;;;5012549;28;20940;-69
2021/04/30 06:11:15;;;;;;;19.00;17.77;;;10.10;99.80;;;;;;5012278;28;20490;-69
2021/04/30 06:13:42;;;;;;;18.13;16.93;;;10.20;99.30;;;;;;5012462;28;20494;-71
2021/04/30 06:16:08;;;;;;;18.27;16.97;;;10.20;99.10;;;;;;5012291;28;20449;-69
2021/04/30 06:18:34;;;;;;;18.00;16.70;;;10.50;98.40;;;;;;5012577;28;20470;-68
2021/04/30 06:21:00;;;;;;;18.17;16.87;;;10.60;98.60;;;;;;5012288;28;20450;-69
2021/04/30 06:23:27;;;;;;;18.33;17.07;;;10.60;98.40;;;;;;5012179;28;20500;-68
2021/04/30 06:25:53;;;;;;;18.83;17.37;;;10.60;98.70;;;;;;5012172;28;20483;-68
2021/04/30 06:28:19;;;;;;;18.50;17.20;;;10.70;98.60;;;;;;5012209;28;20465;-67
2021/04/30 06:30:47;;;;;;;16.90;15.60;;;10.90;98.70;;;;;;5012042;28;20504;-68
2021/04/30 06:33:13;;;;;;;17.90;16.60;;;10.90;98.00;;;;;;5011769;28;20481;-69
2021/04/30 06:35:39;;;;;;;19.13;17.60;;;11.00;98.00;;;;;;5011546;28;20500;-69
2021/04/30 06:38:06;;;;;;;18.10;16.90;;;11.10;97.90;;;;;;5011948;28;20465;-69
2021/04/30 06:40:32;;;;;;;18.23;16.93;;;11.20;97.90;;;;;;5011882;28;20516;-71
2021/04/30 06:42:59;;;;;;;19.43;17.93;;;11.00;97.20;;;;;;5011569;28;20454;-68
2021/04/30 06:45:25;;;;;;;18.13;16.73;;;10.90;97.90;;;;;;5011956;28;20457;-68
2021/04/30 06:47:52;;;;;;;19.33;17.97;;;10.90;98.10;;;;;;5011661;28;20455;-68
2021/04/30 06:50:18;;;;;;;20.30;18.57;;;10.70;97.80;;;;;;5012114;28;20466;-68
2021/04/30 06:52:45;;;;;;;20.30;18.90;;;10.60;98.00;;;;;;5011595;28;20496;-71
2021/04/30 06:55:11;;;;;;;18.33;16.57;;;10.50;98.30;;;;;;5011220;28;20447;-71
2021/04/30 06:57:38;;;;;;;18.93;17.23;;;10.50;98.90;;;;;;5010462;28;20870;-71
2021/04/30 07:00:05;;;;;;;18.20;16.70;;;10.60;98.90;;;;;;5011509;28;20446;-70
2021/04/30 07:02:31;;;;;;;18.60;16.80;;;10.60;99.10;;;;;;5011443;28;20456;-71
2021/04/30 07:04:58;;;;;;;20.97;19.07;;;10.60;99.10;;;;;;5011286;28;20503;-71
2021/04/30 07:07:25;;;;;;;22.87;18.50;;;10.60;99.20;;;;;;5011177;28;20536;-71
2021/04/30 07:09:51;;;;;;;23.80;16.93;;;10.80;99.30;;;;;;5011095;28;20457;-71
2021/04/30 07:12:18;;;;;;;19.37;17.97;;;10.70;99.00;;;;;;5011037;28;20486;-71
2021/04/30 07:14:45;;;;;;;19.00;17.70;;;10.70;99.30;;;;;;5010885;28;20997;-71
2021/04/30 07:17:11;;;;;;;19.70;18.17;;;10.70;98.90;;;;;;5011135;28;20460;-71
2021/04/30 07:19:37;;;;;;;20.23;18.57;;;10.80;99.10;;;;;;5010999;28;20456;-70
2021/04/30 07:22:09;;;;;;;19.27;17.77;;;10.90;98.90;;;;;;5011335;28;20450;-71
2021/04/30 07:24:35;;;;;;;19.10;17.70;;;10.70;98.90;;;;;;5011108;28;20461;-71
2021/04/30 07:27:01;;;;;;;19.57;18.10;;;10.80;99.10;;;;;;5011028;28;20454;-71
2021/04/30 07:29:27;;;;;;;17.80;16.60;;;10.60;99.10;;;;;;5011029;28;20453;-71
2021/04/30 07:31:55;;;;;;;17.23;16.13;;;10.60;99.40;;;;;;5010904;28;20521;-70
2021/04/30 07:34:22;;;;;;;20.03;18.53;;;10.70;99.50;;;;;;5010792;28;20565;-72
2021/04/30 07:36:48;;;;;;;19.90;18.60;;;10.80;99.60;;;;;;5008944;28;20458;-71
2021/04/30 07:39:15;;;;;;;20.67;19.03;;;10.90;99.70;;;;;;5011212;28;20457;-71
2021/04/30 07:41:41;;;;;;;20.20;18.73;;;10.90;99.60;;;;;;5011143;28;20451;-71
2021/04/30 07:44:07;;;;;;;19.67;18.17;;;10.90;99.70;;;;;;5011012;28;20531;-70
2021/04/30 07:46:34;;;;;;;20.43;18.93;;;11.00;99.60;;;;;;5011019;28;20453;-71
2021/04/30 07:49:00;;;;;;;18.90;17.47;;;11.20;99.60;;;;;;5010689;28;20961;-71
2021/04/30 07:51:26;;;;;;;18.83;17.50;;;11.10;99.20;;;;;;5010654;28;20536;-71
2021/04/30 07:53:52;;;;;;;19.37;17.97;;;11.30;99.40;;;;;;5010909;28;20453;-70
2021/04/30 07:56:20;;;;;;;19.27;17.67;;;11.40;99.00;;;;;;5011025;28;20504;-71
2021/04/30 07:58:46;;;;;;;20.33;18.87;;;11.50;99.10;;;;;;5010878;28;20456;-71
2021/04/30 08:01:12;;;;;;;19.93;18.63;;;11.40;98.90;;;;;;5010793;28;20590;-71
2021/04/30 08:03:39;;;;;;;21.07;19.27;;;11.30;99.30;;;;;;5010731;28;20450;-70
2021/04/30 08:06:05;;;;;;;20.20;18.63;;;11.30;99.30;;;;;;5010626;28;20458;-71
2021/04/30 08:08:31;;;;;;;19.67;18.20;;;11.20;99.30;;;;;;5011075;28;20484;-71
2021/04/30 08:10:58;;;;;;;17.83;16.43;;;11.30;99.40;;;;;;5014580;28;20450;-70
2021/04/30 08:13:25;;;;;;;19.80;18.37;;;11.40;99.50;;;;;;5014495;28;20449;-71
2021/04/30 08:15:51;;;;;;;20.13;18.63;;;11.50;99.60;;;;;;5014540;28;20814;-70
2021/04/30 08:18:17;;;;;;;19.50;18.07;;;11.60;99.20;;;;;;5014374;28;20452;-70
2021/04/30 08:20:43;;;;;;;17.73;16.63;;;11.40;99.00;;;;;;5014213;28;20838;-71
2021/04/30 08:23:10;;;;;;;19.50;18.30;;;11.20;99.20;;;;;;5014339;28;20956;-71
2021/04/30 08:25:36;;;;;;;20.27;18.77;;;11.20;99.80;;;;;;5014477;28;20480;-71
2021/04/30 08:28:02;;;;;;;19.30;17.93;;;11.20;99.90;;;;;;5014367;28;20457;-71
2021/04/30 08:30:29;;;;;;;19.10;17.80;;;11.00;99.80;;;;;;5014276;28;20527;-71
2021/04/30 08:32:55;;;;;;;19.90;18.50;;;10.80;99.90;;;;;;5013831;28;21022;-71
2021/04/30 08:35:22;;;;;;;18.90;17.60;;;10.90;99.90;;;;;;5014202;28;20485;-71
2021/04/30 08:37:48;;;;;;;19.27;17.97;;;10.90;99.90;;;;;;5017533;28;20525;-71
2021/04/30 08:40:15;;;;;;;18.40;17.10;;;10.80;99.90;;;;;;5034025;28;20452;-71
2021/04/30 08:42:41;;;;;;;16.37;15.00;;;11.00;99.90;;;;;;5033839;28;20452;-71
2021/04/30 08:45:13;;;;;;;18.20;16.80;;;11.10;99.90;;;;;;5033839;28;20463;-71
2021/04/30 08:47:41;;;;;;;19.23;18.03;;;11.10;99.90;;;;;;5033701;28;20851;-73
2021/04/30 08:50:08;;;;;;;19.47;18.23;;;11.20;99.90;;;;;;5033929;28;20821;-72
2021/04/30 08:52:34;;;;;;;18.67;17.40;;;11.20;99.90;;;;;;5033885;28;20492;-72
2021/04/30 08:55:04;;;;;;;19.33;17.63;;;11.30;99.90;;;;;;5033642;28;20452;-72
2021/04/30 08:57:31;;;;;;;19.23;17.77;;;11.50;99.90;;;;;;5033853;28;20503;-72
2021/04/30 09:00:00;;;;;;;18.90;17.70;;;11.90;99.50;;;;;;5033794;28;20498;-72
2021/04/30 09:02:27;;;;;;;19.53;18.17;;;12.20;99.00;;;;;;5033540;28;21216;-72
2021/04/30 09:04:54;;;;;;;20.07;18.73;;;12.30;98.50;;;;;;5033352;28;20514;-72
2021/04/30 09:07:24;;;;;;;20.13;18.83;;;12.40;97.60;;;;;;5033456;28;20576;-72
2021/04/30 09:09:57;;;;;;;19.00;17.33;;;12.40;97.90;;;;;;5033598;28;20457;-72
2021/04/30 09:12:25;;;;;;;20.03;18.63;;;12.40;97.70;;;;;;5032970;28;20491;-72
2021/04/30 09:14:52;;;;;;;19.93;18.10;;;12.20;97.80;;;;;;5033138;28;20943;-72
2021/04/30 09:17:20;;;;;;;20.67;19.17;;;12.20;97.70;;;;;;5033309;28;20507;-72
2021/04/30 09:19:50;;;;;;;19.20;17.90;;;12.00;98.30;;;;;;5033286;28;20985;-72
2021/04/30 09:22:18;;;;;;;19.60;18.20;;;12.10;98.50;;;;;;5032418;28;20506;-73
2021/04/30 09:24:50;;;;;;;21.97;20.10;;;11.80;98.00;;;;;;5032984;28;20488;-72
2021/04/30 09:27:37;;;;;;;20.37;18.80;;;11.60;98.60;;;;;;5032874;28;20968;-70
2021/04/30 09:30:18;;;;;;;20.30;19.00;;;11.50;98.90;;;;;;5033136;28;20498;-70
2021/04/30 09:33:04;;;;;;;20.17;18.70;;;11.40;99.00;;;;;;5033026;28;20491;-70
2021/04/30 09:35:31;;;;;;;19.87;18.50;;;11.30;98.80;;;;;;5016193;28;20481;-70
2021/04/30 09:37:59;;;;;;;20.43;18.70;;;11.30;98.90;;;;;;5013333;28;20461;-70
2021/04/30 09:40:26;;;;;;;20.57;18.67;;;11.20;98.80;;;;;;4996185;28;20454;-70
2021/04/30 09:43:03;;;;;;;19.87;18.47;;;11.40;99.10;;;;;;4993532;28;20462;-73
2021/04/30 09:45:30;;;;;;;18.40;17.10;;;11.40;98.80;;;;;;4993676;28;20465;-70
2021/04/30 09:47:58;;;;;;;20.60;19.17;;;11.50;99.10;;;;;;4993472;28;20768;-71
2021/04/30 09:50:26;;;;;;;22.63;21.00;;;11.70;98.90;;;;;;4993448;28;20965;-71
2021/04/30 09:52:55;;;;;;;22.33;20.83;;;11.80;99.00;;;;;;4993325;28;20491;-71
2021/04/30 09:55:23;;;;;;;21.47;19.57;;;11.80;99.00;;;;;;4993457;28;20447;-70
2021/04/30 09:57:50;;;;;;;20.80;19.30;;;11.70;98.80;;;;;;5003885;28;20466;-70
2021/04/30 10:00:17;;;;;;;21.10;19.50;;;11.60;99.20;;;;;;5012808;28;20808;-70
2021/04/30 10:02:46;;;;;;;22.43;20.70;;;11.60;99.50;;;;;;5012540;28;20457;-70
2021/04/30 10:05:14;;;;;;;21.13;19.50;;;11.50;99.60;;;;;;5012686;28;20856;-70
2021/04/30 10:07:41;;;;;;;21.80;20.30;;;11.50;99.90;;;;;;5012128;28;20583;-70
2021/04/30 10:10:10;;;;;;;22.03;20.53;;;11.50;99.90;;;;;;5012382;28;20450;-70
2021/04/30 10:12:39;;;;;;;20.80;19.30;;;11.40;99.90;;;;;;5012139;28;20493;-70
2021/04/30 10:15:07;;;;;;;20.90;19.00;;;11.30;99.90;;;;;;5012497;28;20477;-71
2021/04/30 10:17:33;;;;;;;21.20;19.70;;;11.20;99.90;;;;;;5012518;28;20461;-71
2021/04/30 10:19:59;;;;;;;21.80;20.20;;;11.20;99.90;;;;;;5012425;28;20452;-71
2021/04/30 10:22:27;;;;;;;23.43;21.13;;;11.20;99.90;;;;;;5012119;28;20453;-71
2021/04/30 10:24:55;;;;;;;22.03;20.23;;;11.30;99.90;;;;;;5011954;28;20454;-72
2021/04/30 10:27:27;;;;;;;23.53;21.63;;;11.00;99.90;;;;;;5012277;28;20454;-71
2021/04/30 10:30:19;;;;;;;22.27;20.57;;;10.70;99.90;;;;;;5012216;28;20537;-70
2021/04/30 10:32:51;;;;;;;24.60;22.40;;;10.60;99.90;;;;;;5011960;28;20493;-70
2021/04/30 10:35:25;;;;;;;24.40;22.40;;;10.70;99.90;;;;;;5026946;28;21056;-70
2021/04/30 10:37:54;;;;;;;26.47;24.40;;;10.80;99.90;;;;;;5031842;28;20448;-70
2021/04/30 10:40:20;;;;;;;27.97;25.40;;;10.70;99.90;;;;;;5031750;28;20502;-70
2021/04/30 10:42:47;;;;;;;27.50;25.00;;;10.50;99.90;;;;;;5031785;28;20453;-69
2021/04/30 10:45:16;;;;;;;28.47;25.73;;;10.30;99.90;;;;;;5031713;28;20947;-69
2021/04/30 10:48:02;;;;;;;29.37;27.13;;;10.00;99.90;;;;;;5031560;28;20453;-69
2021/04/30 10:50:28;;;;;;;30.37;28.40;;;9.80;99.90;;;;;;5027190;28;20445;-69
2021/04/30 10:53:14;;;;;;;31.30;28.90;;;9.70;99.90;;;;;;5020229;28;21028;-68
2021/04/30 10:55:44;;;;;;;35.70;33.17;;;9.50;99.90;;;;;;5020894;28;20452;-71
2021/04/30 10:58:10;;;;;;;44.57;41.13;;;9.40;99.90;;;;;;5019300;28;20534;-71
2021/04/30 11:00:40;;;;;;;44.23;40.53;;;9.30;99.90;;;;;;5019379;28;20459;-72
2021/04/30 11:03:17;;;;;;;48.67;45.00;;;9.10;99.90;;;;;;5020065;28;20445;-75
2021/04/30 11:05:56;;;;;;;51.13;47.53;;;9.10;99.90;;;;;;5020100;28;20446;-74
2021/04/30 11:08:48;;;;;;;52.07;48.27;;;9.10;99.90;;;;;;5020097;28;20457;-74
2021/04/30 11:11:15;;;;;;;54.97;50.73;;;8.90;99.90;;;;;;5021121;28;20595;-74
2021/04/30 11:13:41;;;;;;;55.07;50.80;;;9.10;99.90;;;;;;5019786;28;20476;-74
2021/04/30 11:16:09;;;;;;;56.30;52.10;;;8.90;99.90;;;;;;5019214;28;20453;-73
2021/04/30 11:19:00;;;;;;;55.77;51.67;;;8.70;99.90;;;;;;5018470;28;20453;-74
2021/04/30 11:21:41;;;;;;;50.40;46.97;;;8.60;99.90;;;;;;5020301;28;20482;-74
2021/04/30 11:24:35;;;;;;;49.33;45.93;;;8.20;99.90;;;;;;5020645;28;20449;-73
2021/04/30 11:27:30;;;;;;;51.10;47.40;;;8.10;99.90;;;;;;5019837;28;20442;-73
2021/04/30 11:30:19;;;;;;;54.33;50.30;;;7.90;99.90;;;;;;5020939;28;21072;-73
2021/04/30 11:32:52;;;;;;;51.57;47.73;;;7.90;99.90;;;;;;5020137;28;20485;-73
2021/04/30 11:35:19;;;;;;;53.87;50.40;;;7.90;99.90;;;;;;5019345;28;20473;-72
2021/04/30 11:37:48;;;;;;;54.07;50.20;;;8.00;99.90;;;;;;5015192;28;20438;-73
2021/04/30 11:40:15;;;;;;;56.60;52.70;;;8.00;99.90;;;;;;5011277;28;20456;-74
2021/04/30 11:42:41;;;;;;;55.93;51.63;;;8.20;99.90;;;;;;5011394;28;20454;-74
2021/04/30 11:45:09;;;;;;;56.57;52.33;;;8.30;99.90;;;;;;5016811;28;20820;-73
2021/04/30 11:47:37;;;;;;;56.37;52.07;;;8.50;99.90;;;;;;5017988;28;20454;-74
2021/04/30 11:50:07;;;;;;;55.70;51.40;;;8.60;99.90;;;;;;5017851;28;20552;-74
2021/04/30 11:52:37;;;;;;;55.90;51.97;;;8.60;99.90;;;;;;5018018;28;20485;-74
2021/04/30 11:55:06;;;;;;;56.27;52.23;;;8.60;99.90;;;;;;5017793;28;20465;-74
2021/04/30 11:57:32;;;;;;;53.87;50.17;;;8.40;99.90;;;;;;5017881;28;20458;-74
2021/04/30 11:59:59;;;;;;;54.23;50.27;;;8.10;99.90;;;;;;5017823;28;20947;-74
2021/04/30 12:02:27;;;;;;;55.53;51.43;;;8.10;99.90;;;;;;5017596;28;20449;-74
2021/04/30 12:04:54;;;;;;;54.47;50.57;;;8.10;99.90;;;;;;5023993;28;20476;-73
2021/04/30 12:07:23;;;;;;;55.77;51.87;;;8.00;99.90;;;;;;5037234;28;21006;-73
2021/04/30 12:09:50;;;;;;;54.43;50.60;;;7.90;99.90;;;;;;5037255;28;20785;-74
2021/04/30 12:12:21;;;;;;;56.83;52.13;;;7.90;99.90;;;;;;5037178;28;20480;-73
2021/04/30 12:14:52;;;;;;;55.07;50.90;;;7.90;99.90;;;;;;5017624;28;20441;-73
2021/04/30 12:17:30;;;;;;;55.00;51.03;;;7.80;99.90;;;;;;5017846;28;20811;-74
2021/04/30 12:20:08;;;;;;;53.67;50.00;;;7.80;99.90;;;;;;5017712;28;20453;-72
2021/04/30 12:22:44;;;;;;;56.70;52.63;;;7.80;99.90;;;;;;5031931;28;20445;-73
2021/04/30 12:25:21;;;;;;;58.90;53.40;;;7.90;99.90;;;;;;5037426;28;20447;-72
2021/04/30 12:27:47;;;;;;;54.90;51.10;;;8.00;99.90;;;;;;5037416;28;20498;-72
2021/04/30 12:30:24;;;;;;;59.37;54.57;;;8.00;99.90;;;;;;5030695;28;20468;-73
2021/04/30 12:32:51;;;;;;;57.23;52.90;;;8.00;99.90;;;;;;5037407;28;20839;-72
2021/04/30 12:35:17;;;;;;;57.03;52.67;;;8.00;99.90;;;;;;5036866;28;21047;-72
2021/04/30 12:37:44;;;;;;;56.23;52.13;;;8.00;99.90;;;;;;5037410;28;20456;-73